UWWWUWSS

Guest
Details From UWWW - Kurumoch
To UWSS - Tsentralny
Flight Number -
Tags Generated
Created
Modified
Stats Distance 189 nm / 351 km
Max Altitude 0 ft / 0 m
Waypoints 2
Social Downloads 2
Likes 0
Share VATSIM

Download

Looking for another format? Having issues loading an existing format? Contact us
Advertisement - Login to hide

Notes

Generated

Route

UWWW UWSS

ID Type Via Altitude Latitude Longitude Leg Dist Tot Dist Heading (true) Name
O UWWW APT - 0 ft / 0 m 53.49841˚ 50.13488˚ - 0 nm - -
O UWSS APT - 0 ft / 0 m 51.57167˚ 46.03333˚ 189 nm 189 nm 234° / 231° -

Altitude Profile

Advertisement - Login to hide

Weather


0- 5 10 15 20 25 30 35+ Temperature / ° C

Clouds and Precipitation
Forecast for 2018-05-26 06:00 UTC. Updated 2 hours ago

Ground ~20,000 ft ~40,000 ft Winds

UWWW

Details ICAO UWWW (KBY)
Name KURUMOCH
Region Russia
Timezone Europe/Samara (UTC+4.0)
Stats Elevation 477 ft / 145 m (AMSL)
Location 53.504905° 50.164434°
Runways 2
Magnetic Variation 12.179° E

METAR

UWWW 260730Z 02012MPS 9999 SCT033 10/M02 Q1025 R33/CLRD60 NOSIG RMK QFE758/1011

Decode

TAF

TAF UWWW 260500Z 2606/2706 36009G14MPS 9999 SCT020 BKN100 TX13/2610Z TN05/2702Z TEMPO 2606/2616 03013G19MPS TEMPO 2616/2619 33003G09MPS BECMG 2619/2621 29003G09MPS TEMPO 2621/2706 25005G11MPS

Decode

Departure Runways

ID Width Length Bearing (true) Bearing (mag) Surface Threshold Offset Overrun Length
05 197 ft / 60 m 8,483 ft / 2,586 m 61.70° 49.52° Asphalt 0 ft / 0 m 75 ft / 23 m
15 148 ft / 45 m 9,845 ft / 3,001 m 160.00° 147.82° Concrete 0 ft / 0 m 175 ft / 53 m
23 197 ft / 60 m 8,483 ft / 2,586 m 241.73° 229.55° Asphalt 0 ft / 0 m 180 ft / 55 m
33 148 ft / 45 m 9,845 ft / 3,001 m 340.01° 327.83° Concrete 0 ft / 0 m 175 ft / 53 m

UWSS

Details ICAO UWSS (RTW)
Name TSENTRALNY
Region Russia
Timezone Europe/Volgograd (UTC+3.0)
Stats Elevation 499 ft / 152 m (AMSL)
Location 51.565833° 46.046667°
Runways 1
Magnetic Variation 10.677° E

METAR

UWSS 260730Z 04006G11MPS CAVOK 13/M00 Q1026 R30/010095 NOSIG RMK QFE756

Decode

TAF

Not found

Destination Runways

ID Width Length Bearing (true) Bearing (mag) Surface Threshold Offset Overrun Length
12 138 ft / 42 m 7,397 ft / 2,255 m 125.13° 114.45° Asphalt 0 ft / 0 m 95 ft / 29 m
30 138 ft / 42 m 7,397 ft / 2,255 m 305.15° 294.47° Asphalt 0 ft / 0 m 95 ft / 29 m

Approach Navaids

Runway Type Ident Frequency Range Bearing (true) Bearing (mag) Slope Elevation
12 Localiser IOH 110.50 MHz 18 nm / 33 km 127.14° 116.46° - 499 ft / 152 m (AMSL)
12 Glidescope IOH 110.50 MHz 10 nm / 19 km 125.14° 114.46° 3.00° 499 ft / 152 m (AMSL)
30 Localiser IDK 109.10 MHz 18 nm / 33 km 305.55° 294.88° - 499 ft / 152 m (AMSL)
30 Glidescope IDK 109.10 MHz 10 nm / 19 km 305.14° 294.46° 2.80° 499 ft / 152 m (AMSL)

Popular Alternatives